Time;durP1;ratioP1;P1;durP2;ratioP2;P2;SDS_P1;SDS_P2;PMS_P1;PMS_P2;Temp;Humidity;BMP_temperature;BMP_pressure;BME280_temperature;BME280_humidity;BME280_pressure;Samples;Min_cycle;Max_cycle;Signal;HPM_P1;HPM_P2
2022/11/30 00:02:19;;;;;;;32.72;15.00;;;;;;;;;;5059376;28;20126;-83
2022/11/30 00:04:44;;;;;;;31.75;15.70;;;;;;;;;;5076959;28;20170;-82
2022/11/30 00:07:10;;;;;;;27.17;13.77;;;;;;;;;;5042546;28;20066;-82
2022/11/30 00:09:35;;;;;;;29.00;14.30;;;;;;;;;;5041784;28;20032;-82
2022/11/30 00:12:01;;;;;;;24.73;13.00;;;;;;;;;;5064255;28;20054;-81
2022/11/30 00:14:26;;;;;;;26.60;13.05;;;;;;;;;;5078415;28;20036;-82
2022/11/30 00:16:51;;;;;;;27.17;14.60;;;;;;;;;;5076290;28;20043;-82
2022/11/30 00:19:17;;;;;;;29.98;14.80;;;;;;;;;;5058574;28;20082;-82
2022/11/30 00:21:42;;;;;;;29.17;14.65;;;;;;;;;;5075912;28;20020;-82
2022/11/30 00:24:08;;;;;;;28.23;13.50;;;;;;;;;;5076145;28;20043;-82
2022/11/30 00:26:33;;;;;;;36.92;16.45;;;;;;;;;;5076462;28;20419;-82
2022/11/30 00:28:59;;;;;;;26.05;14.48;;;;;;;;;;5058352;28;20025;-83
2022/11/30 00:31:24;;;;;;;27.92;13.65;;;;;;;;;;5076151;28;20071;-81
2022/11/30 00:33:49;;;;;;;30.55;16.05;;;;;;;;;;5085886;28;20074;-81
2022/11/30 00:36:16;;;;;;;39.78;20.10;;;;;;;;;;5076308;28;20074;-81
2022/11/30 00:38:42;;;;;;;39.40;20.13;;;;;;;;;;5076106;28;20445;-81
2022/11/30 00:41:08;;;;;;;34.85;17.23;;;;;;;;;;5058709;28;20043;-81
2022/11/30 00:43:33;;;;;;;31.48;15.93;;;;;;;;;;5075992;28;20119;-81
2022/11/30 00:45:59;;;;;;;30.45;14.43;;;;;;;;;;5058488;28;20036;-81
2022/11/30 00:48:24;;;;;;;31.50;15.10;;;;;;;;;;5057841;28;20044;-82
2022/11/30 00:50:50;;;;;;;32.35;15.32;;;;;;;;;;5076056;28;20040;-81
2022/11/30 00:53:16;;;;;;;24.90;13.60;;;;;;;;;;5062462;28;20052;-82
2022/11/30 00:55:42;;;;;;;26.83;14.18;;;;;;;;;;5082275;28;20377;-83
2022/11/30 00:58:07;;;;;;;25.90;12.75;;;;;;;;;;5041488;28;20054;-82
2022/11/30 01:00:33;;;;;;;25.40;13.35;;;;;;;;;;5075780;28;20464;-82
2022/11/30 01:02:58;;;;;;;25.75;13.45;;;;;;;;;;5056884;28;20130;-83
2022/11/30 01:05:24;;;;;;;22.13;12.55;;;;;;;;;;5075855;28;20032;-82
2022/11/30 01:07:49;;;;;;;26.98;15.05;;;;;;;;;;5057423;28;20953;-82
2022/11/30 01:10:15;;;;;;;27.27;13.70;;;;;;;;;;5057505;28;20036;-82
2022/11/30 01:12:40;;;;;;;24.88;13.50;;;;;;;;;;5057510;28;20028;-81
2022/11/30 01:15:06;;;;;;;22.83;13.38;;;;;;;;;;5064893;28;20032;-83
2022/11/30 01:17:32;;;;;;;25.92;13.95;;;;;;;;;;5042108;28;20366;-83
2022/11/30 01:19:57;;;;;;;25.27;14.10;;;;;;;;;;5024213;28;20067;-83
2022/11/30 01:22:22;;;;;;;23.27;12.90;;;;;;;;;;5074869;28;20063;-83
2022/11/30 01:24:48;;;;;;;20.80;12.32;;;;;;;;;;5075438;28;20037;-82
2022/11/30 01:27:13;;;;;;;22.85;13.45;;;;;;;;;;5057444;28;20045;-82
2022/11/30 01:29:39;;;;;;;23.95;13.70;;;;;;;;;;5075314;28;20044;-83
2022/11/30 01:32:04;;;;;;;22.60;12.43;;;;;;;;;;5056961;28;20054;-82
2022/11/30 01:34:30;;;;;;;18.95;11.57;;;;;;;;;;5074402;28;20039;-83
2022/11/30 01:36:57;;;;;;;27.58;14.15;;;;;;;;;;5049918;28;20044;-83
2022/11/30 01:39:22;;;;;;;23.92;13.10;;;;;;;;;;5074812;28;20521;-83
2022/11/30 01:41:48;;;;;;;23.65;13.30;;;;;;;;;;5074958;28;20115;-82
2022/11/30 01:44:13;;;;;;;21.90;11.95;;;;;;;;;;5056979;28;20040;-82
2022/11/30 01:46:48;;;;;;;23.58;11.63;;;;;;;;;;5056824;28;20083;-83
2022/11/30 01:49:16;;;;;;;20.92;11.90;;;;;;;;;;5040347;28;20025;-82
2022/11/30 01:51:46;;;;;;;21.25;13.00;;;;;;;;;;5039902;28;20043;-82
2022/11/30 01:54:12;;;;;;;20.10;11.88;;;;;;;;;;5056797;28;20150;-82
2022/11/30 01:56:42;;;;;;;20.15;12.00;;;;;;;;;;5062321;28;20043;-83
2022/11/30 01:59:07;;;;;;;22.45;12.43;;;;;;;;;;5042364;28;20029;-81
2022/11/30 02:01:32;;;;;;;23.10;12.65;;;;;;;;;;5040267;28;20202;-81
2022/11/30 02:04:01;;;;;;;23.25;11.93;;;;;;;;;;5056608;28;20032;-83
2022/11/30 02:06:26;;;;;;;21.17;11.88;;;;;;;;;;5039862;28;20044;-83
2022/11/30 02:08:52;;;;;;;21.92;11.68;;;;;;;;;;5056439;28;20032;-81
2022/11/30 02:11:17;;;;;;;22.42;11.98;;;;;;;;;;5056823;28;20086;-81
2022/11/30 02:14:07;;;;;;;19.90;12.25;;;;;;;;;;5074584;28;20063;-82
2022/11/30 02:16:57;;;;;;;18.63;11.10;;;;;;;;;;5075698;28;20086;-82
2022/11/30 02:19:31;;;;;;;20.30;11.60;;;;;;;;;;5064928;28;20035;-82
2022/11/30 02:22:10;;;;;;;19.42;11.25;;;;;;;;;;5056040;28;20098;-82
2022/11/30 02:24:38;;;;;;;21.02;11.27;;;;;;;;;;5056555;28;20035;-81
2022/11/30 02:27:12;;;;;;;24.75;12.57;;;;;;;;;;5074109;28;20366;-81
2022/11/30 02:29:42;;;;;;;20.95;11.45;;;;;;;;;;5074616;28;20343;-82
2022/11/30 02:32:31;;;;;;;19.70;12.10;;;;;;;;;;5074210;28;20393;-82
2022/11/30 02:34:57;;;;;;;20.55;10.85;;;;;;;;;;5073210;28;20416;-81
2022/11/30 02:37:22;;;;;;;17.08;10.13;;;;;;;;;;5041302;28;20102;-80
2022/11/30 02:39:48;;;;;;;21.38;11.57;;;;;;;;;;5062923;28;20032;-81
2022/11/30 02:42:13;;;;;;;20.98;11.18;;;;;;;;;;5074204;28;20024;-82
2022/11/30 02:44:44;;;;;;;17.10;10.65;;;;;;;;;;5056102;28;20128;-81
2022/11/30 02:47:20;;;;;;;19.65;10.75;;;;;;;;;;5039896;28;20412;-81
2022/11/30 02:49:49;;;;;;;16.08;10.27;;;;;;;;;;5057345;28;20037;-82
2022/11/30 02:52:15;;;;;;;15.20;9.18;;;;;;;;;;5066318;28;20037;-82
2022/11/30 02:54:40;;;;;;;15.18;9.90;;;;;;;;;;5052765;28;20043;-81
2022/11/30 02:57:06;;;;;;;16.73;10.32;;;;;;;;;;5030293;28;20041;-81
2022/11/30 02:59:31;;;;;;;16.85;10.35;;;;;;;;;;5063178;28;20028;-81
2022/11/30 03:01:56;;;;;;;20.27;10.60;;;;;;;;;;5058023;28;20450;-81
2022/11/30 03:04:22;;;;;;;16.90;9.88;;;;;;;;;;5052908;28;20037;-83
2022/11/30 03:06:49;;;;;;;19.70;10.98;;;;;;;;;;5071905;28;20024;-82
2022/11/30 03:09:14;;;;;;;15.93;10.38;;;;;;;;;;5040254;28;20080;-82
2022/11/30 03:11:40;;;;;;;17.00;10.95;;;;;;;;;;5073671;28;20029;-83
2022/11/30 03:14:05;;;;;;;19.27;11.18;;;;;;;;;;5039114;28;20035;-83
2022/11/30 03:16:31;;;;;;;16.85;10.57;;;;;;;;;;5055896;28;20040;-82
2022/11/30 03:18:57;;;;;;;16.90;10.70;;;;;;;;;;5055763;28;20032;-83
2022/11/30 03:21:22;;;;;;;18.67;10.40;;;;;;;;;;5081315;28;20036;-82
2022/11/30 03:23:47;;;;;;;17.95;10.05;;;;;;;;;;5073897;28;20035;-82
2022/11/30 03:26:13;;;;;;;17.52;10.55;;;;;;;;;;5074056;28;20051;-82
2022/11/30 03:28:38;;;;;;;18.10;10.25;;;;;;;;;;5073798;28;20449;-82
2022/11/30 03:31:04;;;;;;;19.40;10.57;;;;;;;;;;5073883;28;20029;-82
2022/11/30 03:33:29;;;;;;;17.25;9.85;;;;;;;;;;5073384;28;20055;-83
2022/11/30 03:36:05;;;;;;;20.02;11.23;;;;;;;;;;5055647;28;20105;-82
2022/11/30 03:38:32;;;;;;;18.83;10.80;;;;;;;;;;5055753;28;20123;-82
2022/11/30 03:41:09;;;;;;;16.20;10.60;;;;;;;;;;5075822;28;20016;-81
2022/11/30 03:43:35;;;;;;;20.27;11.18;;;;;;;;;;5041916;28;20025;-82
2022/11/30 03:46:00;;;;;;;17.30;10.90;;;;;;;;;;5055629;28;20416;-83
2022/11/30 03:48:26;;;;;;;17.02;10.32;;;;;;;;;;5055316;28;20106;-81
2022/11/30 03:50:51;;;;;;;19.45;11.05;;;;;;;;;;5073673;28;20119;-82
2022/11/30 03:53:17;;;;;;;18.23;11.13;;;;;;;;;;5073208;28;20031;-83
2022/11/30 03:55:42;;;;;;;15.80;10.18;;;;;;;;;;5055488;28;20037;-81
2022/11/30 03:58:08;;;;;;;18.13;11.13;;;;;;;;;;5059416;28;20074;-82
2022/11/30 04:00:33;;;;;;;17.60;10.85;;;;;;;;;;5058692;28;20029;-82
2022/11/30 04:02:59;;;;;;;18.88;11.07;;;;;;;;;;5073033;28;20385;-83
2022/11/30 04:05:24;;;;;;;20.60;11.40;;;;;;;;;;5059165;28;20028;-81
2022/11/30 04:07:50;;;;;;;20.00;10.88;;;;;;;;;;5076962;28;20036;-83
2022/11/30 04:10:15;;;;;;;19.95;11.25;;;;;;;;;;5042214;28;20036;-82
2022/11/30 04:12:40;;;;;;;18.45;11.68;;;;;;;;;;5076846;28;20025;-82
2022/11/30 04:15:06;;;;;;;21.15;12.75;;;;;;;;;;5058981;28;20120;-82
2022/11/30 04:17:32;;;;;;;27.30;14.93;;;;;;;;;;5058132;28;20055;-82
2022/11/30 04:19:57;;;;;;;26.88;14.55;;;;;;;;;;5058722;28;20433;-82
2022/11/30 04:22:23;;;;;;;28.45;16.15;;;;;;;;;;5080929;28;20024;-82
2022/11/30 04:24:48;;;;;;;31.13;16.88;;;;;;;;;;5078953;28;20037;-82
2022/11/30 04:27:13;;;;;;;29.58;16.67;;;;;;;;;;5076647;28;20025;-83
2022/11/30 04:29:39;;;;;;;32.13;17.67;;;;;;;;;;5076225;28;20028;-82
2022/11/30 04:32:04;;;;;;;34.40;17.60;;;;;;;;;;5076396;28;20127;-82
2022/11/30 04:34:30;;;;;;;31.17;17.55;;;;;;;;;;5076641;28;20119;-82
2022/11/30 04:36:56;;;;;;;31.27;16.98;;;;;;;;;;5058148;28;20032;-83
2022/11/30 04:39:22;;;;;;;31.95;17.35;;;;;;;;;;5076280;28;20035;-82
2022/11/30 04:41:47;;;;;;;33.10;17.17;;;;;;;;;;5074418;28;20055;-82
2022/11/30 04:44:12;;;;;;;29.67;16.73;;;;;;;;;;5051509;28;20044;-82
2022/11/30 04:46:38;;;;;;;30.23;18.10;;;;;;;;;;5076289;28;20462;-83
2022/11/30 04:49:03;;;;;;;31.27;16.48;;;;;;;;;;5041182;28;20036;-82
2022/11/30 04:51:29;;;;;;;31.65;16.98;;;;;;;;;;5075642;28;20056;-83
2022/11/30 04:53:54;;;;;;;32.05;17.00;;;;;;;;;;5076320;28;20041;-82
2022/11/30 04:56:20;;;;;;;32.13;17.13;;;;;;;;;;5057890;28;20040;-82
2022/11/30 04:58:45;;;;;;;31.42;15.32;;;;;;;;;;5058054;28;20127;-82
2022/11/30 05:01:10;;;;;;;32.20;16.40;;;;;;;;;;5074959;28;20040;-82
2022/11/30 05:03:36;;;;;;;31.42;15.43;;;;;;;;;;5058895;28;20047;-81
2022/11/30 05:06:01;;;;;;;33.75;16.20;;;;;;;;;;5062343;28;20116;-82
2022/11/30 05:08:27;;;;;;;31.42;15.57;;;;;;;;;;5024410;28;20055;-82
2022/11/30 05:10:53;;;;;;;33.95;14.73;;;;;;;;;;5057729;28;20370;-82
2022/11/30 05:13:18;;;;;;;30.88;13.68;;;;;;;;;;5040961;28;20492;-81
2022/11/30 05:15:44;;;;;;;33.08;14.02;;;;;;;;;;5075411;28;20039;-82
2022/11/30 05:18:09;;;;;;;29.75;13.95;;;;;;;;;;5072209;28;20044;-81
2022/11/30 05:20:35;;;;;;;23.73;10.88;;;;;;;;;;5057581;28;20426;-82
2022/11/30 05:23:00;;;;;;;39.05;17.88;;;;;;;;;;5075929;28;20028;-81
2022/11/30 05:25:26;;;;;;;33.88;15.75;;;;;;;;;;5061500;28;20032;-80
2022/11/30 05:27:52;;;;;;;34.67;15.35;;;;;;;;;;5043069;28;20078;-82
2022/11/30 05:30:17;;;;;;;41.05;18.58;;;;;;;;;;5056961;28;20415;-82
2022/11/30 05:32:42;;;;;;;41.70;18.40;;;;;;;;;;5075008;28;20475;-82
2022/11/30 05:35:08;;;;;;;36.58;17.55;;;;;;;;;;5057385;28;20043;-82
2022/11/30 05:37:33;;;;;;;34.63;16.33;;;;;;;;;;5074708;28;20158;-82
2022/11/30 05:40:00;;;;;;;35.15;17.15;;;;;;;;;;5075191;28;20033;-81
2022/11/30 05:42:27;;;;;;;40.72;17.60;;;;;;;;;;5060306;28;20020;-81
2022/11/30 05:44:52;;;;;;;36.22;17.13;;;;;;;;;;5093622;28;20071;-81
2022/11/30 05:47:22;;;;;;;49.90;20.70;;;;;;;;;;5103010;28;20089;-83
2022/11/30 05:49:48;;;;;;;49.78;21.02;;;;;;;;;;5052979;28;20402;-82
2022/11/30 05:52:16;;;;;;;45.25;21.08;;;;;;;;;;5060449;28;20049;-82
2022/11/30 05:55:31;;;;;;;44.13;20.13;;;;;;;;;;5094998;28;20024;-82
2022/11/30 05:57:49;;;;;;;39.45;17.65;;;;;;;;;;5077093;28;20241;-83
2022/11/30 06:00:15;;;;;;;43.15;20.23;;;;;;;;;;5064451;28;20044;-82
2022/11/30 06:02:40;;;;;;;49.22;20.58;;;;;;;;;;5093355;28;20036;-82
2022/11/30 06:05:06;;;;;;;50.38;21.48;;;;;;;;;;5096378;28;20063;-83
2022/11/30 06:07:32;;;;;;;46.33;18.88;;;;;;;;;;5097131;28;20061;-82
2022/11/30 06:10:01;;;;;;;53.88;23.40;;;;;;;;;;5097894;28;20034;-82
2022/11/30 06:12:26;;;;;;;51.38;21.02;;;;;;;;;;5056325;28;20067;-85
2022/11/30 06:14:52;;;;;;;53.88;21.48;;;;;;;;;;5057957;28;20044;-84
2022/11/30 06:17:18;;;;;;;39.47;17.60;;;;;;;;;;5081366;28;20415;-81
2022/11/30 06:19:43;;;;;;;52.03;22.58;;;;;;;;;;5053373;28;20434;-82
2022/11/30 06:22:08;;;;;;;57.80;24.80;;;;;;;;;;5082438;28;20032;-82
2022/11/30 06:24:34;;;;;;;54.40;22.90;;;;;;;;;;5069284;28;20070;-82
2022/11/30 06:26:59;;;;;;;55.85;23.00;;;;;;;;;;5082568;28;20040;-83
2022/11/30 06:29:25;;;;;;;53.75;22.23;;;;;;;;;;5098483;28;20028;-82
2022/11/30 06:31:50;;;;;;;46.63;19.10;;;;;;;;;;5094339;28;20094;-82
2022/11/30 06:34:16;;;;;;;48.83;22.10;;;;;;;;;;5094081;28;20035;-85
2022/11/30 06:36:41;;;;;;;53.58;22.33;;;;;;;;;;5073767;28;20119;-82
2022/11/30 06:39:09;;;;;;;58.00;23.77;;;;;;;;;;5085799;28;20028;-84
2022/11/30 06:41:34;;;;;;;55.35;21.42;;;;;;;;;;5077258;28;20030;-83
2022/11/30 06:44:00;;;;;;;53.22;21.50;;;;;;;;;;5096500;28;20032;-83
2022/11/30 06:46:31;;;;;;;55.47;22.02;;;;;;;;;;5054080;28;20040;-85
2022/11/30 06:48:56;;;;;;;54.38;20.42;;;;;;;;;;5063320;28;20052;-82
2022/11/30 06:51:22;;;;;;;50.20;21.80;;;;;;;;;;5095385;28;20449;-84
2022/11/30 06:53:49;;;;;;;52.95;21.10;;;;;;;;;;5097125;28;20024;-82
2022/11/30 06:56:14;;;;;;;48.70;22.67;;;;;;;;;;5094091;28;20162;-82
2022/11/30 06:58:40;;;;;;;52.35;21.95;;;;;;;;;;5077093;28;20047;-80
2022/11/30 07:01:07;;;;;;;48.90;19.55;;;;;;;;;;5064065;28;20028;-83
2022/11/30 07:03:32;;;;;;;53.10;21.00;;;;;;;;;;5091265;28;20048;-83
2022/11/30 07:05:58;;;;;;;49.38;20.13;;;;;;;;;;5094429;28;20039;-82
2022/11/30 07:08:23;;;;;;;48.10;19.63;;;;;;;;;;5072623;28;20421;-81
2022/11/30 07:10:49;;;;;;;48.45;17.80;;;;;;;;;;5058637;28;20434;-82
2022/11/30 07:13:18;;;;;;;40.15;19.10;;;;;;;;;;5061105;28;20404;-84
2022/11/30 07:15:44;;;;;;;39.72;17.98;;;;;;;;;;5061686;28;20331;-83
2022/11/30 07:18:27;;;;;;;35.72;16.42;;;;;;;;;;5043086;28;20074;-87
2022/11/30 07:20:52;;;;;;;41.05;15.25;;;;;;;;;;5045349;28;20044;-83
2022/11/30 07:26:08;;;;;;;34.60;14.38;;;;;;;;;;5077168;28;20032;-82
2022/11/30 07:28:38;;;;;;;36.97;15.50;;;;;;;;;;5057876;28;20446;-83
2022/11/30 07:31:14;;;;;;;40.15;16.17;;;;;;;;;;5057720;28;20051;-82
2022/11/30 07:33:39;;;;;;;28.23;13.40;;;;;;;;;;5081841;28;20056;-84
2022/11/30 07:36:05;;;;;;;38.50;13.98;;;;;;;;;;5080134;28;20032;-82
2022/11/30 07:38:34;;;;;;;39.67;15.40;;;;;;;;;;5065689;28;20029;-83
2022/11/30 07:40:59;;;;;;;33.20;15.25;;;;;;;;;;5073485;28;20115;-82
2022/11/30 07:43:26;;;;;;;33.50;14.68;;;;;;;;;;5065655;28;20055;-83
2022/11/30 07:45:52;;;;;;;39.30;15.20;;;;;;;;;;5099093;28;20038;-83
2022/11/30 07:48:18;;;;;;;34.30;15.85;;;;;;;;;;5077379;28;20068;-85
2022/11/30 07:50:44;;;;;;;35.47;14.95;;;;;;;;;;5064468;28;20032;-83
2022/11/30 07:53:24;;;;;;;34.47;14.02;;;;;;;;;;5078507;28;20040;-82
2022/11/30 07:56:06;;;;;;;28.45;13.07;;;;;;;;;;5047940;28;20026;-83
2022/11/30 07:58:32;;;;;;;37.22;14.65;;;;;;;;;;5079016;28;20071;-81
2022/11/30 08:01:04;;;;;;;30.02;12.00;;;;;;;;;;5084866;28;20027;-83
2022/11/30 08:03:30;;;;;;;39.92;15.23;;;;;;;;;;5058958;28;20512;-83
2022/11/30 08:06:03;;;;;;;40.83;15.75;;;;;;;;;;5093634;28;20038;-82
2022/11/30 08:08:30;;;;;;;28.75;11.85;;;;;;;;;;5094537;28;20063;-83
2022/11/30 08:10:56;;;;;;;41.58;15.80;;;;;;;;;;5056783;28;20024;-82
2022/11/30 08:13:21;;;;;;;42.10;17.42;;;;;;;;;;5077475;28;20069;-81
2022/11/30 08:15:47;;;;;;;39.60;16.88;;;;;;;;;;5098566;28;20484;-84
2022/11/30 08:18:13;;;;;;;28.23;11.77;;;;;;;;;;5060320;28;20060;-82
2022/11/30 08:20:38;;;;;;;33.00;15.00;;;;;;;;;;5073600;28;20032;-83
2022/11/30 08:23:04;;;;;;;31.58;13.82;;;;;;;;;;5078331;28;20044;-80
2022/11/30 08:25:30;;;;;;;24.63;12.27;;;;;;;;;;5098350;28;20077;-80
2022/11/30 08:27:55;;;;;;;27.55;12.40;;;;;;;;;;5097610;28;20085;-81
2022/11/30 08:30:22;;;;;;;28.02;12.52;;;;;;;;;;5098065;28;20040;-80
2022/11/30 08:32:47;;;;;;;29.95;13.38;;;;;;;;;;5045922;28;20049;-80
2022/11/30 08:35:16;;;;;;;32.90;14.13;;;;;;;;;;5058585;28;20115;-81
2022/11/30 08:37:41;;;;;;;26.27;11.73;;;;;;;;;;5084954;28;20251;-81
2022/11/30 08:40:07;;;;;;;28.40;11.88;;;;;;;;;;5075116;28;20067;-83
2022/11/30 08:42:32;;;;;;;25.33;10.75;;;;;;;;;;5051407;28;20041;-81
2022/11/30 08:44:58;;;;;;;21.70;10.60;;;;;;;;;;5065906;28;20095;-83
2022/11/30 08:47:24;;;;;;;25.15;11.48;;;;;;;;;;5077909;28;20123;-80
2022/11/30 08:49:59;;;;;;;20.13;8.80;;;;;;;;;;5076860;28;20037;-82
2022/11/30 08:52:25;;;;;;;20.55;9.05;;;;;;;;;;5075783;28;20036;-81
2022/11/30 08:54:51;;;;;;;18.85;9.68;;;;;;;;;;5074190;28;20062;-83
2022/11/30 08:57:19;;;;;;;16.98;8.63;;;;;;;;;;5077955;28;20028;-80
2022/11/30 08:59:48;;;;;;;18.63;8.73;;;;;;;;;;5053481;28;20108;-81
2022/11/30 09:02:17;;;;;;;14.60;7.82;;;;;;;;;;5066783;28;20039;-81
2022/11/30 09:04:43;;;;;;;19.88;9.00;;;;;;;;;;5067915;28;20024;-78
2022/11/30 09:07:08;;;;;;;19.50;8.38;;;;;;;;;;5067528;28;20189;-81
2022/11/30 09:09:34;;;;;;;16.67;8.40;;;;;;;;;;5043132;28;20452;-81
2022/11/30 09:12:00;;;;;;;16.00;7.65;;;;;;;;;;5081717;28;20069;-82
2022/11/30 09:14:25;;;;;;;15.73;7.80;;;;;;;;;;5095676;28;20469;-81
2022/11/30 09:16:52;;;;;;;14.23;7.15;;;;;;;;;;5088727;28;20044;-79
2022/11/30 09:19:18;;;;;;;21.90;8.73;;;;;;;;;;5060209;28;20028;-81
2022/11/30 09:21:46;;;;;;;15.40;7.90;;;;;;;;;;5101536;28;20060;-80
2022/11/30 09:24:11;;;;;;;12.70;6.30;;;;;;;;;;5067441;28;20092;-81
2022/11/30 09:26:37;;;;;;;14.60;6.68;;;;;;;;;;5062226;28;20060;-83
2022/11/30 09:29:02;;;;;;;16.38;8.25;;;;;;;;;;5060926;28;20057;-81
2022/11/30 09:31:28;;;;;;;17.02;6.75;;;;;;;;;;5062748;28;20029;-81
2022/11/30 09:33:57;;;;;;;12.38;5.50;;;;;;;;;;5054430;28;20051;-80
2022/11/30 09:36:23;;;;;;;16.10;7.53;;;;;;;;;;5042820;28;20553;-79
2022/11/30 09:38:49;;;;;;;13.63;6.88;;;;;;;;;;5062307;28;20087;-80
2022/11/30 09:41:41;;;;;;;16.25;8.15;;;;;;;;;;5071921;28;20062;-79
2022/11/30 09:44:22;;;;;;;12.93;5.93;;;;;;;;;;5073811;28;20033;-80
2022/11/30 09:46:49;;;;;;;16.67;8.00;;;;;;;;;;5058166;28;20036;-81
2022/11/30 09:49:23;;;;;;;14.05;7.47;;;;;;;;;;5051975;28;20470;-80
2022/11/30 09:51:49;;;;;;;20.15;8.85;;;;;;;;;;5071949;28;20078;-81
2022/11/30 09:54:34;;;;;;;18.17;8.18;;;;;;;;;;5049856;28;20032;-80
2022/11/30 09:57:04;;;;;;;16.35;6.13;;;;;;;;;;5053522;28;20071;-80
2022/11/30 09:59:31;;;;;;;21.00;10.10;;;;;;;;;;5067733;28;20036;-82
2022/11/30 10:02:02;;;;;;;17.92;8.10;;;;;;;;;;5071555;28;20023;-80
2022/11/30 10:04:27;;;;;;;;;;;;;;;;;;5075038;28;20063;-81
2022/11/30 10:07:31;;;;;;;16.77;8.77;;;;;;;;;;5072535;28;20258;-82
2022/11/30 10:10:06;;;;;;;17.42;8.07;;;;;;;;;;5072550;28;20465;-82
2022/11/30 10:12:59;;;;;;;18.88;9.88;;;;;;;;;;5073056;28;20036;-81
2022/11/30 10:15:37;;;;;;;14.93;7.97;;;;;;;;;;5085806;28;20066;-81
2022/11/30 10:18:41;;;;;;;21.33;9.57;;;;;;;;;;5057374;28;20247;-79
2022/11/30 10:21:25;;;;;;;23.30;11.23;;;;;;;;;;5060087;28;20067;-81
2022/11/30 10:24:21;;;;;;;24.05;11.10;;;;;;;;;;5093112;28;20031;-78
2022/11/30 10:26:56;;;;;;;22.15;11.13;;;;;;;;;;5071706;28;20099;-80
2022/11/30 10:29:26;;;;;;;23.88;10.98;;;;;;;;;;5070214;28;20039;-82
2022/11/30 10:31:53;;;;;;;;;;;;;;;;;;5038081;28;20048;-82
2022/11/30 10:34:33;;;;;;;26.40;10.18;;;;;;;;;;5051809;28;20297;-81
2022/11/30 10:37:31;;;;;;;17.10;8.07;;;;;;;;;;5069569;28;20037;-82
2022/11/30 10:40:02;;;;;;;25.10;11.20;;;;;;;;;;5075769;28;20493;-82
2022/11/30 10:42:53;;;;;;;27.00;12.02;;;;;;;;;;5075787;28;20124;-81
2022/11/30 10:45:21;;;;;;;20.75;9.50;;;;;;;;;;5066554;28;20066;-81
2022/11/30 10:48:00;;;;;;;21.40;9.32;;;;;;;;;;5068340;28;20028;-83
2022/11/30 10:50:29;;;;;;;23.17;10.50;;;;;;;;;;5048215;28;20028;-81
2022/11/30 10:52:58;;;;;;;23.15;9.35;;;;;;;;;;5034026;28;20154;-82
2022/11/30 10:55:25;;;;;;;26.63;10.57;;;;;;;;;;5053679;28;20041;-84
2022/11/30 10:58:00;;;;;;;21.60;9.85;;;;;;;;;;5037478;28;20086;-81
2022/11/30 11:00:31;;;;;;;22.80;10.90;;;;;;;;;;5048290;28;20039;-84
2022/11/30 11:02:56;;;;;;;20.77;10.32;;;;;;;;;;5073317;28;20029;-83
2022/11/30 11:05:28;;;;;;;19.25;9.63;;;;;;;;;;5097656;28;20065;-82
2022/11/30 11:07:55;;;;;;;33.33;12.82;;;;;;;;;;5083322;28;20031;-82
2022/11/30 11:10:43;;;;;;;21.05;10.38;;;;;;;;;;5088129;28;20050;-84
2022/11/30 11:13:16;;;;;;;24.88;10.25;;;;;;;;;;5060938;28;20032;-82
2022/11/30 11:15:43;;;;;;;24.73;11.30;;;;;;;;;;5075042;28;20410;-82
2022/11/30 11:18:14;;;;;;;15.70;8.55;;;;;;;;;;5060488;28;20430;-82
2022/11/30 11:20:42;;;;;;;21.27;9.85;;;;;;;;;;5095408;28;20078;-82
2022/11/30 11:23:37;;;;;;;20.25;10.55;;;;;;;;;;5061194;28;20433;-83
2022/11/30 11:26:04;;;;;;;16.58;8.75;;;;;;;;;;5080439;28;20029;-83
2022/11/30 11:28:29;;;;;;;18.70;9.18;;;;;;;;;;5097471;28;20039;-82
2022/11/30 11:30:55;;;;;;;19.65;9.95;;;;;;;;;;5086828;28;20024;-82
2022/11/30 11:33:28;;;;;;;23.73;11.25;;;;;;;;;;5059694;28;20049;-82
2022/11/30 11:36:09;;;;;;;19.48;9.80;;;;;;;;;;5097665;28;20024;-82
2022/11/30 11:38:47;;;;;;;20.33;9.90;;;;;;;;;;5078095;28;20104;-80
2022/11/30 11:41:24;;;;;;;17.02;8.25;;;;;;;;;;5067700;28;20435;-82
2022/11/30 11:44:08;;;;;;;15.48;8.48;;;;;;;;;;5064151;28;20036;-80
2022/11/30 11:46:50;;;;;;;22.05;9.57;;;;;;;;;;5081510;28;20039;-84
2022/11/30 11:49:25;;;;;;;17.52;9.52;;;;;;;;;;5060837;28;20028;-82
2022/11/30 11:52:01;;;;;;;22.35;9.48;;;;;;;;;;5079865;28;20039;-82
2022/11/30 11:54:40;;;;;;;14.63;7.82;;;;;;;;;;5079065;28;20029;-83
2022/11/30 11:57:10;;;;;;;20.55;10.55;;;;;;;;;;5090753;28;20042;-83
2022/11/30 11:59:49;;;;;;;19.02;10.40;;;;;;;;;;5099717;28;20676;-83
2022/11/30 12:02:27;;;;;;;20.90;11.07;;;;;;;;;;5062207;28;20050;-83
2022/11/30 12:05:04;;;;;;;18.85;8.80;;;;;;;;;;5106645;28;20024;-83
2022/11/30 12:07:48;;;;;;;21.33;9.43;;;;;;;;;;5096415;28;20040;-83
2022/11/30 12:11:00;;;;;;;16.40;7.68;;;;;;;;;;5096165;28;20024;-81
2022/11/30 12:13:31;;;;;;;21.67;10.57;;;;;;;;;;5064559;28;20044;-81
2022/11/30 12:16:03;;;;;;;16.20;10.18;;;;;;;;;;5080768;28;20027;-83
2022/11/30 12:18:56;;;;;;;22.35;9.95;;;;;;;;;;5090673;28;20036;-83
2022/11/30 12:21:30;;;;;;;20.40;10.50;;;;;;;;;;5096179;28;20114;-83
2022/11/30 12:24:10;;;;;;;21.83;10.80;;;;;;;;;;5102036;28;20038;-82
2022/11/30 12:26:46;;;;;;;18.35;9.38;;;;;;;;;;5075825;28;20039;-82
2022/11/30 12:29:21;;;;;;;19.67;8.95;;;;;;;;;;5074471;28;20025;-82
2022/11/30 12:32:06;;;;;;;16.88;10.18;;;;;;;;;;5072910;28;20024;-82
2022/11/30 12:34:46;;;;;;;10.77;5.95;;;;;;;;;;5075099;28;20077;-82
2022/11/30 12:37:30;;;;;;;19.27;8.52;;;;;;;;;;5059088;28;20044;-82
2022/11/30 12:40:01;;;;;;;15.80;8.60;;;;;;;;;;5053316;28;20115;-81
2022/11/30 12:42:34;;;;;;;19.52;8.60;;;;;;;;;;5052671;28;20053;-82
2022/11/30 12:45:10;;;;;;;17.52;8.77;;;;;;;;;;5057265;28;20029;-83
2022/11/30 12:48:01;;;;;;;20.70;9.93;;;;;;;;;;5051520;28;20028;-83
2022/11/30 12:50:32;;;;;;;18.23;9.85;;;;;;;;;;5053793;28;20078;-81
2022/11/30 12:53:08;;;;;;;17.55;8.65;;;;;;;;;;5052701;28;20041;-82
2022/11/30 12:55:37;;;;;;;18.83;8.48;;;;;;;;;;5057303;28;20055;-80
2022/11/30 12:58:29;;;;;;;15.77;8.95;;;;;;;;;;5057171;28;20534;-83
2022/11/30 13:01:22;;;;;;;12.80;6.85;;;;;;;;;;5034827;28;20406;-83
2022/11/30 13:04:24;;;;;;;18.25;9.23;;;;;;;;;;5059809;28;20045;-82
2022/11/30 13:07:45;;;;;;;23.98;9.52;;;;;;;;;;5008674;28;20048;-82
2022/11/30 13:10:31;;;;;;;18.40;8.57;;;;;;;;;;4993666;28;20037;-83
2022/11/30 13:12:57;;;;;;;17.73;8.80;;;;;;;;;;5057620;28;20131;-82
2022/11/30 13:15:24;;;;;;;17.40;9.90;;;;;;;;;;5038499;28;20433;-82
2022/11/30 13:17:50;;;;;;;19.95;9.52;;;;;;;;;;5050281;28;20087;-82
2022/11/30 13:20:25;;;;;;;23.50;9.52;;;;;;;;;;5040511;28;20363;-82
2022/11/30 13:23:02;;;;;;;15.77;8.85;;;;;;;;;;5064537;28;20079;-83
2022/11/30 13:25:51;;;;;;;13.27;6.82;;;;;;;;;;5055445;28;20082;-82
2022/11/30 13:28:22;;;;;;;18.90;9.50;;;;;;;;;;5053820;28;20470;-82
2022/11/30 13:31:06;;;;;;;18.23;9.95;;;;;;;;;;5053413;28;20040;-82
2022/11/30 13:33:54;;;;;;;20.13;9.77;;;;;;;;;;5046601;28;20048;-82
2022/11/30 13:36:31;;;;;;;20.38;10.38;;;;;;;;;;5047142;28;20116;-81
2022/11/30 13:39:17;;;;;;;18.45;9.57;;;;;;;;;;5065391;28;20447;-82
2022/11/30 13:41:59;;;;;;;22.20;11.25;;;;;;;;;;5059159;28;20080;-82
2022/11/30 13:44:32;;;;;;;26.23;12.38;;;;;;;;;;5055772;28;20098;-82
2022/11/30 13:46:58;;;;;;;29.02;12.23;;;;;;;;;;5054100;28;20111;-83
2022/11/30 13:49:27;;;;;;;28.73;14.20;;;;;;;;;;5037108;28;20033;-83
2022/11/30 13:51:53;;;;;;;25.13;13.25;;;;;;;;;;5055044;28;20029;-82
2022/11/30 13:54:37;;;;;;;24.10;12.70;;;;;;;;;;5054866;28;20367;-82
2022/11/30 13:57:23;;;;;;;31.45;17.10;;;;;;;;;;5054649;28;20025;-82
2022/11/30 13:59:50;;;;;;;33.13;17.23;;;;;;;;;;5042380;28;20141;-83
2022/11/30 14:02:48;;;;;;;25.70;13.48;;;;;;;;;;5068715;28;20013;-84
2022/11/30 14:05:17;;;;;;;27.90;14.18;;;;;;;;;;5032313;28;20472;-83
2022/11/30 14:07:45;;;;;;;29.67;13.82;;;;;;;;;;5036892;28;20060;-82
2022/11/30 14:10:30;;;;;;;22.75;12.20;;;;;;;;;;5055040;28;20111;-83
2022/11/30 14:12:58;;;;;;;21.67;12.70;;;;;;;;;;5037210;28;20526;-82
2022/11/30 14:15:44;;;;;;;32.05;16.75;;;;;;;;;;5036386;28;20036;-82
2022/11/30 14:18:09;;;;;;;28.77;14.98;;;;;;;;;;5035949;28;20041;-83
2022/11/30 14:20:48;;;;;;;28.63;15.65;;;;;;;;;;5068092;28;20067;-81
2022/11/30 14:23:22;;;;;;;26.00;14.13;;;;;;;;;;5021052;28;20029;-82
2022/11/30 14:25:51;;;;;;;38.72;16.77;;;;;;;;;;5036614;28;20102;-82
2022/11/30 14:28:19;;;;;;;29.85;15.48;;;;;;;;;;5054923;28;20041;-82
2022/11/30 14:30:44;;;;;;;31.25;15.60;;;;;;;;;;5036862;28;20040;-82
2022/11/30 14:33:43;;;;;;;25.45;13.25;;;;;;;;;;5054388;28;20402;-82
2022/11/30 14:36:08;;;;;;;28.98;13.77;;;;;;;;;;5037544;28;20044;-81
2022/11/30 14:38:37;;;;;;;32.45;15.77;;;;;;;;;;5036611;28;20041;-82
2022/11/30 14:41:03;;;;;;;35.20;15.65;;;;;;;;;;5052548;28;20033;-81
2022/11/30 14:43:28;;;;;;;35.10;15.85;;;;;;;;;;5062806;28;20069;-82